createdAt,value
2018-12-25T00:00:46.060Z,100079.86
2018-12-25T00:03:13.013Z,100081.16
2018-12-25T00:05:40.008Z,100080.80
2018-12-25T00:08:07.009Z,100088.56
2018-12-25T00:10:33.993Z,100076.81
2018-12-25T00:13:02.647Z,100076.45
2018-12-25T00:15:29.524Z,100079.04
2018-12-25T00:17:56.542Z,100077.59
2018-12-25T00:20:24.603Z,100082.08
2018-12-25T00:22:51.615Z,100088.88
2018-12-25T00:25:18.710Z,100090.73
2018-12-25T00:27:45.691Z,100091.91
2018-12-25T00:30:12.646Z,100102.96
2018-12-25T00:32:39.646Z,100105.28
2018-12-25T00:35:06.640Z,100105.13
2018-12-25T00:37:33.582Z,100097.72
2018-12-25T00:40:06.755Z,100098.08
2018-12-25T00:42:33.676Z,100101.42
2018-12-25T00:45:00.851Z,100095.10
2018-12-25T00:47:27.832Z,100094.83
2018-12-25T00:49:54.780Z,100100.35
2018-12-25T00:52:21.770Z,100106.19
2018-12-25T00:54:48.784Z,100107.36
2018-12-25T00:57:15.768Z,100109.60
2018-12-25T00:59:42.642Z,100116.22
2018-12-25T01:02:09.541Z,100116.83
2018-12-25T01:04:36.536Z,100120.41
2018-12-25T01:07:04.558Z,100125.64
2018-12-25T01:09:31.426Z,100127.63
2018-12-25T01:11:58.395Z,100132.13
2018-12-25T01:14:25.389Z,100130.61
2018-12-25T01:16:52.459Z,100131.08
2018-12-25T01:19:23.402Z,100123.41
2018-12-25T01:25:30.450Z,100120.47
2018-12-25T01:27:57.478Z,100119.94
2018-12-25T01:30:24.420Z,100122.37
2018-12-25T01:32:51.332Z,100133.42
2018-12-25T01:35:18.192Z,100133.95
2018-12-25T01:37:45.046Z,100133.66
2018-12-25T01:40:11.922Z,100133.34
2018-12-25T01:42:38.896Z,100128.00
2018-12-25T01:45:05.779Z,100127.03
2018-12-25T01:47:32.730Z,100124.19
2018-12-25T01:49:59.784Z,100119.69
2018-12-25T01:52:26.648Z,100127.16
2018-12-25T01:54:53.658Z,100122.51
2018-12-25T01:57:20.710Z,100127.01
2018-12-25T01:59:47.692Z,100129.72
2018-12-25T02:02:14.635Z,100129.09
2018-12-25T02:04:41.635Z,100130.15
2018-12-25T02:07:08.459Z,100127.77
2018-12-25T02:09:35.497Z,100126.88
2018-12-25T02:12:02.498Z,100119.38
2018-12-25T02:14:29.397Z,100127.30
2018-12-25T02:16:57.418Z,100123.57
2018-12-25T02:19:24.245Z,100129.22
2018-12-25T02:21:52.381Z,100130.05
2018-12-25T02:24:19.567Z,100131.80
2018-12-25T02:26:46.439Z,100135.75
2018-12-25T02:29:13.440Z,100129.38
2018-12-25T02:31:40.361Z,100131.56
2018-12-25T02:34:07.274Z,100130.66
2018-12-25T02:36:34.106Z,100131.13
2018-12-25T02:39:01.000Z,100121.08
2018-12-25T02:41:28.135Z,100120.98
2018-12-25T02:43:55.157Z,100126.26
2018-12-25T02:46:22.168Z,100129.78
2018-12-25T02:48:49.078Z,100119.12
2018-12-25T02:51:15.882Z,100118.66
2018-12-25T02:53:42.912Z,100116.11
2018-12-25T02:56:09.978Z,100116.20
2018-12-25T02:58:38.688Z,100107.92
2018-12-25T03:01:05.650Z,100104.13
2018-12-25T03:03:32.592Z,100091.51
2018-12-25T03:05:59.541Z,100096.63
2018-12-25T03:08:26.401Z,100093.27
2018-12-25T03:10:53.393Z,100092.80
2018-12-25T03:13:20.363Z,100086.73
2018-12-25T03:15:47.395Z,100080.21
2018-12-25T03:18:14.442Z,100078.09
2018-12-25T03:20:43.206Z,100078.64
2018-12-25T03:23:10.205Z,100083.93
2018-12-25T03:25:36.997Z,100076.93
2018-12-25T03:28:03.913Z,100076.10
2018-12-25T03:30:32.015Z,100071.80
2018-12-25T03:32:58.998Z,100082.27
2018-12-25T03:35:26.041Z,100077.97
2018-12-25T03:37:52.990Z,100073.20
2018-12-25T03:40:20.184Z,100074.86
2018-12-25T03:42:47.162Z,100077.55
2018-12-25T03:45:14.092Z,100075.52
2018-12-25T03:47:42.118Z,100075.93
2018-12-25T03:50:10.746Z,100078.16
2018-12-25T03:52:37.842Z,100070.39
2018-12-25T03:55:04.846Z,100077.80
2018-12-25T03:57:32.092Z,100074.64
2018-12-25T03:59:59.098Z,100064.48
2018-12-25T04:02:26.011Z,100064.37
2018-12-25T04:04:53.011Z,100070.86
2018-12-25T04:07:19.976Z,100073.34
2018-12-25T04:09:48.753Z,100083.34
2018-12-25T04:12:15.673Z,100081.63
2018-12-25T04:14:44.392Z,100079.87
2018-12-25T04:17:12.196Z,100073.03
2018-12-25T04:19:40.054Z,100075.67
2018-12-25T04:22:07.791Z,100071.92
2018-12-25T04:24:38.526Z,100067.95
2018-12-25T04:27:05.454Z,100069.66
2018-12-25T04:29:32.530Z,100066.66
2018-12-25T04:31:59.466Z,100075.67
2018-12-25T04:34:26.336Z,100075.31
2018-12-25T04:36:53.156Z,100075.59
2018-12-25T04:39:19.963Z,100071.25
2018-12-25T04:41:46.859Z,100080.45
2018-12-25T04:44:13.852Z,100088.28
2018-12-25T04:46:40.797Z,100093.46
2018-12-25T04:49:07.978Z,100093.56
2018-12-25T04:51:34.814Z,100095.33
2018-12-25T04:54:01.750Z,100091.02
2018-12-25T04:56:28.755Z,100100.18
2018-12-25T04:58:55.775Z,100087.33
2018-12-25T05:01:22.632Z,100089.91
2018-12-25T05:03:49.580Z,100091.58
2018-12-25T05:06:16.464Z,100085.52
2018-12-25T05:08:43.447Z,100076.48
2018-12-25T05:11:10.363Z,100081.54
2018-12-25T05:13:37.355Z,100071.17
2018-12-25T05:16:04.334Z,100065.98
2018-12-25T05:18:31.390Z,100060.60
2018-12-25T05:21:00.157Z,100062.64
2018-12-25T05:23:26.951Z,100060.05
2018-12-25T05:25:54.228Z,100070.61
2018-12-25T05:28:21.195Z,100068.70
2018-12-25T05:30:48.219Z,100070.50
2018-12-25T05:33:15.208Z,100069.20
2018-12-25T05:35:42.132Z,100067.08
2018-12-25T05:38:09.076Z,100056.25
2018-12-25T05:40:36.056Z,100066.82
2018-12-25T05:43:03.032Z,100070.24
2018-12-25T05:45:29.927Z,100082.73
2018-12-25T05:47:56.872Z,100089.11
2018-12-25T05:50:24.868Z,100082.27
2018-12-25T05:52:51.792Z,100082.27
2018-12-25T05:55:19.528Z,100079.67
2018-12-25T05:57:46.564Z,100083.20
2018-12-25T06:00:13.603Z,100082.42
2018-12-25T06:02:42.394Z,100085.02
2018-12-25T06:05:09.658Z,100081.13
2018-12-25T06:07:36.613Z,100085.69
2018-12-25T06:10:03.796Z,100081.80
2018-12-25T06:12:30.819Z,100080.50
2018-12-25T06:14:58.963Z,100079.67
2018-12-25T06:17:25.892Z,100079.26
2018-12-25T06:19:52.915Z,100077.14
2018-12-25T06:22:19.843Z,100076.67
2018-12-25T06:24:46.834Z,100072.47
2018-12-25T06:27:13.957Z,100073.06
2018-12-25T06:29:40.911Z,100077.05
2018-12-25T06:32:07.851Z,100074.36
2018-12-25T06:34:34.835Z,100073.43
2018-12-25T06:37:01.892Z,100074.78
2018-12-25T06:39:28.835Z,100076.85
2018-12-25T06:41:55.842Z,100070.76
2018-12-25T06:44:22.767Z,100072.14
2018-12-25T06:46:49.794Z,100072.97
2018-12-25T06:49:16.805Z,100082.61
2018-12-25T06:51:43.720Z,100089.55
2018-12-25T06:54:10.754Z,100075.77
2018-12-25T06:56:37.644Z,100082.70
2018-12-25T06:59:05.705Z,100074.00
2018-12-25T07:01:32.721Z,100073.58
2018-12-25T07:04:00.370Z,100065.34
2018-12-25T07:06:27.534Z,100057.98
2018-12-25T07:08:54.637Z,100053.73
2018-12-25T07:11:21.793Z,100050.30
2018-12-25T07:13:48.937Z,100044.00
2018-12-25T07:16:16.103Z,100034.52
2018-12-25T07:18:43.222Z,100040.22
2018-12-25T07:21:12.504Z,100034.16
2018-12-25T07:23:39.510Z,100043.91
2018-12-25T07:26:08.354Z,100033.18
2018-12-25T07:28:35.475Z,100037.56
2018-12-25T07:31:02.544Z,100031.83
2018-12-25T07:33:29.746Z,100035.67
2018-12-25T07:35:57.922Z,100038.31
2018-12-25T07:38:25.040Z,100041.79
2018-12-25T07:40:54.095Z,100031.74
2018-12-25T07:43:21.176Z,100037.25
2018-12-25T07:45:48.239Z,100047.72
2018-12-25T07:48:15.539Z,100058.04
2018-12-25T07:50:42.605Z,100057.75
2018-12-25T07:53:09.682Z,100060.86
2018-12-25T07:55:38.577Z,100065.12
2018-12-25T07:58:05.819Z,100058.63
2018-12-25T08:00:32.992Z,100053.86
2018-12-25T08:03:00.133Z,100051.78
2018-12-25T08:05:27.274Z,100050.48
2018-12-25T08:07:54.352Z,100051.05
2018-12-25T08:10:21.411Z,100052.84
2018-12-25T08:12:48.461Z,100043.39
2018-12-25T08:15:15.509Z,100041.82
2018-12-25T08:17:42.652Z,100041.48
2018-12-25T08:20:09.687Z,100032.41
2018-12-25T08:22:36.713Z,100028.14
2018-12-25T08:25:03.921Z,100022.12
2018-12-25T08:27:32.093Z,100022.59
2018-12-25T08:29:59.103Z,100028.36
2018-12-25T08:32:27.191Z,100029.58
2018-12-25T08:34:54.587Z,100047.41
2018-12-25T08:37:21.620Z,100050.55
2018-12-25T08:39:48.743Z,100045.32
2018-12-25T08:42:15.758Z,100046.70
2018-12-25T08:44:42.987Z,100039.97
2018-12-25T08:47:11.637Z,100029.23
2018-12-25T08:49:41.813Z,100032.82
2018-12-25T08:52:08.856Z,100036.84
2018-12-25T08:54:37.948Z,100039.16
2018-12-25T08:57:05.024Z,100030.99
2018-12-25T08:59:32.019Z,100026.77
2018-12-25T09:01:59.148Z,100031.33
2018-12-25T09:04:27.012Z,100033.59
2018-12-25T09:06:54.058Z,100029.73
2018-12-25T09:09:21.335Z,100029.88
2018-12-25T09:11:48.394Z,100025.98
2018-12-25T09:14:17.253Z,100030.08
2018-12-25T09:16:44.379Z,100022.29
2018-12-25T09:19:11.407Z,100023.67
2018-12-25T09:21:46.187Z,100031.53
2018-12-25T09:24:07.411Z,100029.44
2018-12-25T09:26:34.450Z,100023.83
2018-12-25T09:29:01.519Z,100027.81
2018-12-25T09:31:28.601Z,100030.56
2018-12-25T09:33:55.776Z,100030.48
2018-12-25T09:36:22.786Z,100034.09
2018-12-25T09:38:51.165Z,100039.44
2018-12-25T09:41:18.479Z,100022.69
2018-12-25T09:43:45.517Z,100024.82
2018-12-25T09:46:12.612Z,100025.73
2018-12-25T09:48:39.997Z,100029.75
2018-12-25T09:51:07.346Z,100037.55
2018-12-25T09:53:34.517Z,100036.24
2018-12-25T09:56:01.704Z,100034.66
2018-12-25T09:58:28.824Z,100024.64
2018-12-25T10:00:55.865Z,100044.13
2018-12-25T10:03:22.888Z,100046.72
2018-12-25T10:05:49.921Z,100034.61
2018-12-25T10:08:18.070Z,100032.89
2018-12-25T10:10:45.053Z,100032.89
2018-12-25T10:13:12.042Z,100027.27
2018-12-25T10:15:39.145Z,100035.07
2018-12-25T10:18:06.305Z,100048.13
2018-12-25T10:20:33.272Z,100051.95
2018-12-25T10:23:00.379Z,100063.80
2018-12-25T10:25:27.440Z,100071.44
2018-12-25T10:27:54.651Z,100084.68
2018-12-25T10:30:22.046Z,100081.96
2018-12-25T10:32:50.220Z,100078.44
2018-12-25T10:35:19.428Z,100072.33
2018-12-25T10:37:47.470Z,100075.27
2018-12-25T10:40:15.095Z,100071.03
2018-12-25T10:42:42.610Z,100072.41
2018-12-25T10:45:20.105Z,100058.17
2018-12-25T10:47:58.599Z,100050.80
2018-12-25T10:50:26.699Z,100039.10
2018-12-25T10:52:53.654Z,100040.60
2018-12-25T10:55:20.915Z,100040.60
2018-12-25T10:57:47.906Z,100041.06
2018-12-25T11:00:15.570Z,100029.56
2018-12-25T11:02:44.233Z,100021.66
2018-12-25T11:05:14.755Z,100039.77
2018-12-25T11:07:42.124Z,100041.48
2018-12-25T11:10:10.287Z,100042.41
2018-12-25T11:12:37.814Z,100046.45
2018-12-25T11:15:06.235Z,100042.09
2018-12-25T11:17:34.370Z,100043.33
2018-12-25T11:20:02.408Z,100039.50
2018-12-25T11:22:30.228Z,100033.09
2018-12-25T11:24:58.240Z,100033.28
2018-12-25T11:27:25.950Z,100027.63
2018-12-25T11:30:06.849Z,100018.98
2018-12-25T11:32:46.506Z,100019.38
2018-12-25T11:35:18.158Z,100027.28
2018-12-25T11:40:24.746Z,100009.05
2018-12-25T11:42:52.040Z,99999.47
2018-12-25T11:45:19.544Z,100010.36
2018-12-25T11:47:46.952Z,100010.81
2018-12-25T11:50:14.643Z,99998.85
2018-12-25T11:52:42.128Z,99996.33
2018-12-25T11:55:10.680Z,99996.14
2018-12-25T11:57:38.816Z,100000.30
2018-12-25T12:00:06.622Z,99999.64
2018-12-25T12:02:33.635Z,99989.16
2018-12-25T12:05:06.741Z,99988.14
2018-12-25T12:07:33.795Z,99997.62
2018-12-25T12:10:00.937Z,99998.69
2018-12-25T12:12:27.989Z,99995.28
2018-12-25T12:14:55.121Z,99998.34
2018-12-25T12:17:22.350Z,99994.02
2018-12-25T12:19:49.438Z,99997.81
2018-12-25T12:22:16.521Z,99982.95
2018-12-25T12:24:54.505Z,99987.23
2018-12-25T12:27:33.608Z,99991.51
2018-12-25T12:30:15.253Z,99996.17
2018-12-25T12:32:53.824Z,99989.67
2018-12-25T12:35:29.320Z,99991.51
2018-12-25T12:38:12.633Z,99991.40
2018-12-25T12:40:50.629Z,100001.06
2018-12-25T12:43:19.143Z,100003.70
2018-12-25T12:45:46.368Z,100006.95
2018-12-25T12:48:13.749Z,100008.17
2018-12-25T12:50:40.857Z,100006.80
2018-12-25T12:53:07.895Z,100003.28
2018-12-25T12:55:34.939Z,100000.23
2018-12-25T12:58:02.039Z,100001.45
2018-12-25T13:00:29.094Z,100005.39
2018-12-25T13:02:56.211Z,100016.28
2018-12-25T13:05:23.345Z,100011.50
2018-12-25T13:07:50.330Z,100017.13
2018-12-25T13:10:17.375Z,100019.69
2018-12-25T13:12:44.523Z,100020.94
2018-12-25T13:15:11.852Z,100030.03
2018-12-25T13:17:40.254Z,100029.05
2018-12-25T13:20:07.308Z,100029.47
2018-12-25T13:22:34.358Z,100028.09
2018-12-25T13:25:01.354Z,100025.48
2018-12-25T13:27:28.489Z,100028.55
2018-12-25T13:29:55.565Z,100035.92
2018-12-25T13:32:22.700Z,100043.30
2018-12-25T13:34:49.702Z,100044.59
2018-12-25T13:37:16.803Z,100045.44
2018-12-25T13:39:45.612Z,100048.95
2018-12-25T13:42:12.851Z,100061.11
2018-12-25T13:44:41.783Z,100057.17
2018-12-25T13:47:08.834Z,100067.10
2018-12-25T13:49:35.881Z,100071.04
2018-12-25T13:52:02.947Z,100063.66
2018-12-25T13:54:31.653Z,100067.10
2018-12-25T13:56:58.711Z,100064.28
2018-12-25T13:59:25.718Z,100061.14
2018-12-25T14:01:52.842Z,100062.87
2018-12-25T14:04:19.813Z,100061.06
2018-12-25T14:06:46.966Z,100061.98
2018-12-25T14:09:13.981Z,100066.72
2018-12-25T14:11:40.931Z,100064.66
2018-12-25T14:14:07.992Z,100061.03
2018-12-25T14:16:36.851Z,100070.24
2018-12-25T14:19:03.908Z,100059.46
2018-12-25T14:21:31.225Z,100053.89
2018-12-25T14:23:58.323Z,100053.42
2018-12-25T14:26:25.305Z,100050.87
2018-12-25T14:28:52.216Z,100050.87
2018-12-25T14:31:19.191Z,100052.55
2018-12-25T14:33:46.328Z,100043.91
2018-12-25T14:36:13.295Z,100046.97
2018-12-25T14:38:40.357Z,100042.27
2018-12-25T14:41:09.362Z,100046.97
2018-12-25T14:43:36.255Z,100045.17
2018-12-25T14:46:03.290Z,100043.75
2018-12-25T14:48:30.369Z,100055.03
2018-12-25T14:51:00.293Z,100048.03
2018-12-25T14:53:27.304Z,100039.41
2018-12-25T14:55:54.439Z,100031.23
2018-12-25T14:58:21.420Z,100032.94
2018-12-25T15:00:48.385Z,100036.00
2018-12-25T15:03:15.435Z,100036.34
2018-12-25T15:05:42.382Z,100035.42
2018-12-25T15:08:09.464Z,100037.27
2018-12-25T15:10:36.511Z,100042.50
2018-12-25T15:13:03.466Z,100046.81
2018-12-25T15:15:30.488Z,100047.77
2018-12-25T15:17:57.501Z,100047.27
2018-12-25T15:20:24.534Z,100047.77
2018-12-25T15:22:51.556Z,100040.78
2018-12-25T15:25:18.446Z,100035.73
2018-12-25T15:27:45.529Z,100038.59
2018-12-25T15:30:12.546Z,100038.59
2018-12-25T15:32:39.493Z,100042.08
2018-12-25T15:35:09.074Z,100042.08
2018-12-25T15:37:36.108Z,100049.45
2018-12-25T15:40:03.078Z,100046.47
2018-12-25T15:42:30.010Z,100039.55
2018-12-25T15:44:57.122Z,100045.67
2018-12-25T15:47:24.130Z,100041.27
2018-12-25T15:49:59.837Z,100038.67
2018-12-25T15:52:30.118Z,100046.05
2018-12-25T15:55:01.345Z,100051.25
2018-12-25T15:57:53.106Z,100051.33
2018-12-25T16:00:22.627Z,100056.86
2018-12-25T16:02:50.119Z,100053.89
2018-12-25T16:05:17.070Z,100052.59
2018-12-25T16:07:48.120Z,100050.06
2018-12-25T16:10:18.957Z,100052.17
2018-12-25T16:12:46.822Z,100056.98
2018-12-25T16:15:21.097Z,100052.59
2018-12-25T16:17:51.152Z,100040.89
2018-12-25T16:20:29.862Z,100046.55
2018-12-25T16:23:16.297Z,100051.75
2018-12-25T16:26:06.540Z,100046.28
2018-12-25T16:28:40.612Z,100046.59
2018-12-25T16:31:23.806Z,100045.79
2018-12-25T16:34:20.016Z,100046.17
2018-12-25T16:37:10.323Z,100044.07
2018-12-25T16:39:38.045Z,100053.70
2018-12-25T16:42:13.988Z,100038.10
2018-12-25T16:45:04.208Z,100049.77
2018-12-25T16:47:31.298Z,100047.63
2018-12-25T16:50:05.376Z,100046.36
2018-12-25T16:52:34.522Z,100049.50
2018-12-25T16:55:04.621Z,100053.40
2018-12-25T16:57:31.556Z,100056.88
2018-12-25T17:00:06.454Z,100058.56
2018-12-25T17:02:33.398Z,100061.20
2018-12-25T17:05:15.451Z,100061.11
2018-12-25T17:08:00.886Z,100058.09
2018-12-25T17:10:29.209Z,100068.95
2018-12-25T17:13:00.445Z,100066.05
2018-12-25T17:15:40.902Z,100063.38
2018-12-25T17:18:12.423Z,100068.08
2018-12-25T17:20:44.867Z,100069.38
2018-12-25T17:23:12.096Z,100071.36
2018-12-25T17:25:39.215Z,100066.58
2018-12-25T17:28:06.246Z,100058.90
2018-12-25T17:30:34.162Z,100062.27
2018-12-25T17:33:02.950Z,100067.42
2018-12-25T17:35:29.907Z,100062.60
2018-12-25T17:37:56.943Z,100068.84
2018-12-25T17:40:24.874Z,100063.17
2018-12-25T17:42:52.903Z,100065.66
2018-12-25T17:45:20.039Z,100059.62
2018-12-25T17:47:47.002Z,100049.27
2018-12-25T17:50:13.908Z,100055.27
2018-12-25T17:52:40.922Z,100062.22
2018-12-25T17:55:07.918Z,100056.10
2018-12-25T17:57:34.911Z,100056.86
2018-12-25T18:00:01.919Z,100058.28
2018-12-25T18:02:28.871Z,100059.81
2018-12-25T18:04:55.858Z,100058.89
2018-12-25T18:07:22.786Z,100067.44
2018-12-25T18:09:49.761Z,100061.86
2018-12-25T18:12:16.781Z,100065.77
2018-12-25T18:14:43.637Z,100064.05
2018-12-25T18:17:18.646Z,100072.26
2018-12-25T18:19:39.722Z,100068.78
2018-12-25T18:22:07.360Z,100078.30
2018-12-25T18:24:34.849Z,100078.22
2018-12-25T18:27:01.829Z,100083.11
2018-12-25T18:29:28.854Z,100083.53
2018-12-25T18:31:56.025Z,100080.09
2018-12-25T18:34:23.097Z,100078.38
2018-12-25T18:36:50.214Z,100083.31
2018-12-25T18:39:17.211Z,100084.61
2018-12-25T18:41:44.256Z,100082.55
2018-12-25T18:44:11.323Z,100087.29
2018-12-25T18:46:38.372Z,100087.67
2018-12-25T18:49:05.391Z,100086.75
2018-12-25T18:51:32.394Z,100092.41
2018-12-25T18:53:59.404Z,100092.48
2018-12-25T18:56:26.395Z,100089.43
2018-12-25T18:58:53.445Z,100091.23
2018-12-25T19:01:20.543Z,100088.55
2018-12-25T19:03:47.614Z,100088.97
2018-12-25T19:06:14.741Z,100095.09
2018-12-25T19:08:41.806Z,100082.94
2018-12-25T19:11:09.033Z,100088.21
2018-12-25T19:13:36.175Z,100083.85
2018-12-25T19:16:04.410Z,100090.35
2018-12-25T19:18:31.644Z,100084.27
2018-12-25T19:20:58.645Z,100080.33
2018-12-25T19:23:25.817Z,100082.09
2018-12-25T19:25:52.888Z,100074.37
2018-12-25T19:28:20.027Z,100070.86
2018-12-25T19:30:47.213Z,100073.08
2018-12-25T19:33:14.217Z,100060.08
2018-12-25T19:35:41.170Z,100067.53
2018-12-25T19:38:08.207Z,100065.05
2018-12-25T19:40:35.241Z,100067.27
2018-12-25T19:43:02.316Z,100061.69
2018-12-25T19:45:31.231Z,100063.87
2018-12-25T19:47:58.232Z,100056.07
2018-12-25T19:50:25.294Z,100058.33
2018-12-25T19:52:52.441Z,100057.48
2018-12-25T19:55:19.619Z,100056.56
2018-12-25T19:57:46.413Z,100051.83
2018-12-25T20:00:14.043Z,100054.89
2018-12-25T20:02:42.195Z,100051.29
2018-12-25T20:06:15.551Z,100057.41
2018-12-25T20:09:16.069Z,100047.78
2018-12-25T20:12:10.486Z,100059.81
2018-12-25T20:14:58.755Z,100059.73
2018-12-25T20:18:09.755Z,100060.70
2018-12-25T20:21:21.036Z,100054.20
2018-12-25T20:24:19.841Z,100049.04
2018-12-25T20:27:30.807Z,100047.28
2018-12-25T20:30:54.823Z,100042.92
2018-12-25T20:33:36.937Z,100040.74
2018-12-25T20:36:50.280Z,100040.70
2018-12-25T20:39:56.150Z,100042.88
2018-12-25T20:43:03.992Z,100044.48
2018-12-25T20:46:21.476Z,100040.97
2018-12-25T20:49:22.289Z,100041.47
2018-12-25T20:52:11.837Z,100036.61
2018-12-25T20:55:18.837Z,100035.73
2018-12-25T20:58:26.405Z,100037.83
2018-12-25T21:01:29.985Z,100037.88
2018-12-25T21:04:48.074Z,100042.23
2018-12-25T21:07:59.156Z,100033.47
2018-12-25T21:11:05.332Z,100026.45
2018-12-25T21:14:10.489Z,100023.34
2018-12-25T21:17:04.799Z,100021.59
2018-12-25T21:20:16.617Z,100018.98
2018-12-25T21:23:20.118Z,100022.43
2018-12-25T21:26:23.561Z,100023.20
2018-12-25T21:28:50.711Z,100024.91
2018-12-25T21:31:17.879Z,100016.20
2018-12-25T21:33:45.089Z,100019.26
2018-12-25T21:36:12.211Z,100009.75
2018-12-25T21:38:39.272Z,100009.02
2018-12-25T21:41:06.961Z,100003.78
2018-12-25T21:43:33.968Z,100000.34
2018-12-25T21:46:01.151Z,100008.14
2018-12-25T21:48:28.281Z,100008.59
2018-12-25T21:50:56.719Z,99999.58
2018-12-25T21:53:23.838Z,99998.85
2018-12-25T21:55:51.202Z,99997.44
2018-12-25T21:58:18.225Z,99994.80
2018-12-25T22:00:45.072Z,99990.91
2018-12-25T22:03:12.769Z,99989.95
2018-12-25T22:05:39.726Z,99988.19
2018-12-25T22:08:06.694Z,99989.95
2018-12-25T22:10:33.704Z,99986.89
2018-12-25T22:13:00.715Z,99990.88
2018-12-25T22:15:27.803Z,99990.38
2018-12-25T22:17:54.843Z,99978.56
2018-12-25T22:20:25.702Z,99978.61
2018-12-25T22:22:52.791Z,99986.33
2018-12-25T22:25:27.102Z,99978.53
2018-12-25T22:27:48.636Z,99987.16
2018-12-25T22:30:15.604Z,99989.68
2018-12-25T22:32:42.462Z,99995.60
2018-12-25T22:35:10.777Z,99986.13
2018-12-25T22:37:39.624Z,99978.67
2018-12-25T22:40:09.262Z,99989.95
2018-12-25T22:42:36.243Z,99990.25
2018-12-25T22:45:11.321Z,99988.56
2018-12-25T22:47:49.060Z,99979.17
2018-12-25T22:50:23.525Z,99970.50
2018-12-25T22:52:50.602Z,99980.39
2018-12-25T22:55:21.131Z,99985.13
2018-12-25T22:57:48.322Z,99983.83
2018-12-25T23:00:45.231Z,99978.64
2018-12-25T23:02:59.116Z,99979.55
2018-12-25T23:05:27.335Z,99982.88
2018-12-25T23:07:55.920Z,99979.86
2018-12-25T23:10:22.933Z,99978.56
2018-12-25T23:12:49.947Z,99982.42
2018-12-25T23:15:16.884Z,99976.45
2018-12-25T23:17:43.889Z,99984.56
2018-12-25T23:20:10.763Z,99975.84
2018-12-25T23:22:37.846Z,99974.81
2018-12-25T23:25:05.111Z,99976.48
2018-12-25T23:27:32.036Z,99981.42
2018-12-25T23:29:59.048Z,99977.98
2018-12-25T23:32:26.006Z,99980.96
2018-12-25T23:34:53.066Z,99986.96
2018-12-25T23:37:19.986Z,99985.66
2018-12-25T23:39:47.060Z,99990.05
2018-12-25T23:42:13.988Z,99983.95
2018-12-25T23:44:40.987Z,99975.27
2018-12-25T23:47:07.988Z,99958.77
2018-12-25T23:49:34.973Z,99953.88
2018-12-25T23:52:01.935Z,99958.11
2018-12-25T23:54:28.993Z,99964.14
2018-12-25T23:56:55.933Z,99959.80
2018-12-25T23:59:22.920Z,99956.94
